createdAt,value
2023-10-09T00:00:45.194Z,12.60
2023-10-09T00:01:47.915Z,12.60
2023-10-09T00:02:50.578Z,12.70
2023-10-09T00:03:55.100Z,12.70
2023-10-09T00:04:58.162Z,12.70
2023-10-09T00:06:01.757Z,12.70
2023-10-09T00:07:09.020Z,12.70
2023-10-09T00:08:17.464Z,12.70
2023-10-09T00:09:39.732Z,12.70
2023-10-09T00:10:54.912Z,12.70
2023-10-09T00:11:58.507Z,12.60
2023-10-09T00:13:00.954Z,12.60
2023-10-09T00:14:06.396Z,12.60
2023-10-09T00:15:13.225Z,12.60
2023-10-09T00:16:24.543Z,12.70
2023-10-09T00:17:32.408Z,12.60
2023-10-09T00:18:35.647Z,12.60
2023-10-09T00:19:38.294Z,12.60
2023-10-09T00:20:43.949Z,12.60
2023-10-09T00:21:47.311Z,12.60
2023-10-09T00:22:49.666Z,12.60
2023-10-09T00:24:00.423Z,12.60
2023-10-09T00:25:12.162Z,12.60
2023-10-09T00:26:17.786Z,12.60
2023-10-09T00:27:32.828Z,12.60
2023-10-09T00:28:36.695Z,12.60
2023-10-09T00:29:49.160Z,12.60
2023-10-09T00:30:54.078Z,12.60
2023-10-09T00:32:04.640Z,12.60
2023-10-09T00:33:09.097Z,12.60
2023-10-09T00:34:19.830Z,12.60
2023-10-09T00:35:37.975Z,12.60
2023-10-09T00:36:52.081Z,12.60
2023-10-09T00:38:01.745Z,12.50
2023-10-09T00:39:13.406Z,12.50
2023-10-09T00:40:23.112Z,12.50
2023-10-09T00:41:26.221Z,12.50
2023-10-09T00:42:34.268Z,12.50
2023-10-09T00:43:37.992Z,12.50
2023-10-09T00:44:43.771Z,12.50
2023-10-09T00:45:48.435Z,12.50
2023-10-09T00:46:51.099Z,12.50
2023-10-09T00:47:57.603Z,12.50
2023-10-09T00:49:03.923Z,12.50
2023-10-09T00:50:22.016Z,12.40
2023-10-09T00:51:25.607Z,12.40
2023-10-09T00:52:51.217Z,12.40
2023-10-09T00:53:58.649Z,12.40
2023-10-09T00:55:20.301Z,12.40
2023-10-09T00:56:27.064Z,12.30
2023-10-09T00:57:32.795Z,12.40
2023-10-09T00:58:37.187Z,12.30
2023-10-09T00:59:40.744Z,12.30
2023-10-09T01:00:47.381Z,12.30
2023-10-09T01:01:58.509Z,12.40
2023-10-09T01:03:21.830Z,12.40
2023-10-09T01:04:29.864Z,12.30
2023-10-09T01:05:32.847Z,12.40
2023-10-09T01:06:43.928Z,12.30
2023-10-09T01:07:49.569Z,12.40
2023-10-09T01:09:12.150Z,12.40
2023-10-09T01:10:17.634Z,12.30
2023-10-09T01:11:20.033Z,12.40
2023-10-09T01:12:22.807Z,12.40
2023-10-09T01:13:45.054Z,12.40
2023-10-09T01:14:53.965Z,12.40
2023-10-09T01:15:59.202Z,12.40
2023-10-09T01:17:02.580Z,12.40
2023-10-09T01:18:06.061Z,12.30
2023-10-09T01:19:14.199Z,12.40
2023-10-09T01:20:31.224Z,12.30
2023-10-09T01:21:33.667Z,12.30
2023-10-09T01:22:36.476Z,12.40
2023-10-09T01:23:44.251Z,12.40
2023-10-09T01:24:49.530Z,12.30
2023-10-09T01:25:52.439Z,12.30
2023-10-09T01:27:00.411Z,12.30
2023-10-09T01:28:03.614Z,12.30
2023-10-09T01:29:11.692Z,12.30
2023-10-09T01:30:15.365Z,12.30
2023-10-09T01:31:21.981Z,12.30
2023-10-09T01:32:27.969Z,12.30
2023-10-09T01:33:32.305Z,12.30
2023-10-09T01:34:51.394Z,12.30
2023-10-09T01:36:00.269Z,12.30
2023-10-09T01:37:06.413Z,12.30
2023-10-09T01:38:16.498Z,12.30
2023-10-09T01:39:28.836Z,12.30
2023-10-09T01:40:38.885Z,12.30
2023-10-09T01:41:47.977Z,12.30
2023-10-09T01:42:50.384Z,12.20
2023-10-09T01:43:58.052Z,12.20
2023-10-09T01:45:10.851Z,12.20
2023-10-09T01:46:17.332Z,12.20
2023-10-09T01:47:20.510Z,12.20
2023-10-09T01:48:25.749Z,12.20
2023-10-09T01:49:30.957Z,12.20
2023-10-09T01:50:36.690Z,12.20
2023-10-09T01:51:39.854Z,12.20
2023-10-09T01:52:43.888Z,12.20
2023-10-09T01:53:48.969Z,12.20
2023-10-09T01:54:54.618Z,12.20
2023-10-09T01:55:57.084Z,12.20
2023-10-09T01:57:01.163Z,12.20
2023-10-09T01:58:32.012Z,12.30
2023-10-09T01:59:37.228Z,12.30
2023-10-09T02:00:44.989Z,12.30
2023-10-09T02:01:49.133Z,12.30
2023-10-09T02:02:52.020Z,12.30
2023-10-09T02:03:55.770Z,12.30
2023-10-09T02:05:15.581Z,12.30
2023-10-09T02:06:27.492Z,12.20
2023-10-09T02:07:31.545Z,12.20
2023-10-09T02:08:37.289Z,12.10
2023-10-09T02:09:47.340Z,12.10
2023-10-09T02:10:49.899Z,12.10
2023-10-09T02:11:52.416Z,12.00
2023-10-09T02:13:00.417Z,12.00
2023-10-09T02:14:20.200Z,11.90
2023-10-09T02:15:46.055Z,11.90
2023-10-09T02:17:10.066Z,11.80
2023-10-09T02:18:19.772Z,11.80
2023-10-09T02:19:35.634Z,11.80
2023-10-09T02:20:39.194Z,11.70
2023-10-09T02:21:42.861Z,11.70
2023-10-09T02:22:45.297Z,11.70
2023-10-09T02:23:51.032Z,11.70
2023-10-09T02:25:00.246Z,11.70
2023-10-09T02:26:07.235Z,11.70
2023-10-09T02:27:12.792Z,11.70
2023-10-09T02:28:21.279Z,11.70
2023-10-09T02:29:25.447Z,11.70
2023-10-09T02:30:28.633Z,11.70
2023-10-09T02:31:37.884Z,11.70
2023-10-09T02:32:41.412Z,11.70
2023-10-09T02:33:45.670Z,11.70
2023-10-09T02:34:48.091Z,11.70
2023-10-09T02:35:52.703Z,11.70
2023-10-09T02:37:07.224Z,11.70
2023-10-09T02:38:15.684Z,11.70
2023-10-09T02:39:25.266Z,11.70
2023-10-09T02:40:33.222Z,11.80
2023-10-09T02:41:35.958Z,11.80
2023-10-09T02:42:43.858Z,11.80
2023-10-09T02:43:47.539Z,11.80
2023-10-09T02:44:53.399Z,11.80
2023-10-09T02:45:55.833Z,11.80
2023-10-09T02:47:00.067Z,11.90
2023-10-09T02:48:10.143Z,11.90
2023-10-09T02:49:17.023Z,11.90
2023-10-09T02:50:22.951Z,11.90
2023-10-09T02:51:28.888Z,11.90
2023-10-09T02:52:42.240Z,11.90
2023-10-09T02:53:44.859Z,11.90
2023-10-09T02:54:53.828Z,11.90
2023-10-09T02:56:18.314Z,11.90
2023-10-09T02:57:24.171Z,11.90
2023-10-09T02:58:26.643Z,11.90
2023-10-09T02:59:31.029Z,11.90
2023-10-09T03:00:37.291Z,11.90
2023-10-09T03:01:41.681Z,11.90
2023-10-09T03:02:44.060Z,11.90
2023-10-09T03:03:46.980Z,11.90
2023-10-09T03:04:49.450Z,11.80
2023-10-09T03:05:52.330Z,11.80
2023-10-09T03:06:58.492Z,11.80
2023-10-09T03:08:01.514Z,11.80
2023-10-09T03:09:17.534Z,11.80
2023-10-09T03:10:20.403Z,11.80
2023-10-09T03:11:22.800Z,11.80
2023-10-09T03:12:28.707Z,11.80
2023-10-09T03:13:34.316Z,11.80
2023-10-09T03:14:39.632Z,11.80
2023-10-09T03:15:43.998Z,11.80
2023-10-09T03:16:46.475Z,11.80
2023-10-09T03:17:49.477Z,11.80
2023-10-09T03:18:54.824Z,11.80
2023-10-09T03:19:57.229Z,11.80
2023-10-09T03:21:00.423Z,11.70
2023-10-09T03:22:03.080Z,11.70
2023-10-09T03:23:09.037Z,11.70
2023-10-09T03:24:13.025Z,11.70
2023-10-09T03:25:18.231Z,11.70
2023-10-09T03:26:22.492Z,11.70
2023-10-09T03:27:25.062Z,11.70
2023-10-09T03:28:27.535Z,11.70
2023-10-09T03:29:29.939Z,11.60
2023-10-09T03:30:33.897Z,11.60
2023-10-09T03:31:37.860Z,11.60
2023-10-09T03:32:40.276Z,11.60
2023-10-09T03:33:42.935Z,11.60
2023-10-09T03:34:45.429Z,11.60
2023-10-09T03:35:47.731Z,11.60
2023-10-09T03:36:52.465Z,11.60
2023-10-09T03:38:13.185Z,11.60
2023-10-09T03:39:34.585Z,11.60
2023-10-09T03:40:40.283Z,11.60
2023-10-09T03:41:43.297Z,11.60
2023-10-09T03:42:48.700Z,11.50
2023-10-09T03:43:52.138Z,11.50
2023-10-09T03:44:55.346Z,11.50
2023-10-09T03:45:58.749Z,11.50
2023-10-09T03:47:02.250Z,11.50
2023-10-09T03:48:16.017Z,11.50
2023-10-09T03:49:24.376Z,11.50
2023-10-09T03:50:37.072Z,11.50
2023-10-09T03:51:40.931Z,11.50
2023-10-09T03:52:43.322Z,11.50
2023-10-09T03:53:45.782Z,11.50
2023-10-09T03:54:48.210Z,11.50
2023-10-09T03:55:50.639Z,11.50
2023-10-09T03:56:55.940Z,11.40
2023-10-09T03:58:02.059Z,11.40
2023-10-09T03:59:05.870Z,11.40
2023-10-09T04:00:15.045Z,11.30
2023-10-09T04:01:29.798Z,11.30
2023-10-09T04:02:32.699Z,11.20
2023-10-09T04:03:38.213Z,11.20
2023-10-09T04:04:42.516Z,11.20
2023-10-09T04:05:45.241Z,11.10
2023-10-09T04:06:47.854Z,11.10
2023-10-09T04:07:50.509Z,11.10
2023-10-09T04:08:53.032Z,11.00
2023-10-09T04:10:15.394Z,11.00
2023-10-09T04:11:17.866Z,11.00
2023-10-09T04:12:26.886Z,10.90
2023-10-09T04:13:35.610Z,10.90
2023-10-09T04:14:48.695Z,10.90
2023-10-09T04:15:53.948Z,11.00
2023-10-09T04:17:28.446Z,11.00
2023-10-09T04:18:34.375Z,11.00
2023-10-09T04:19:49.397Z,11.00
2023-10-09T04:21:20.292Z,11.10
2023-10-09T04:22:32.314Z,11.10
2023-10-09T04:23:37.342Z,11.10
2023-10-09T04:24:45.902Z,11.10
2023-10-09T04:25:52.265Z,11.10
2023-10-09T04:26:57.690Z,11.10
2023-10-09T04:28:10.980Z,11.10
2023-10-09T04:29:19.713Z,11.10
2023-10-09T04:30:24.985Z,11.10
2023-10-09T04:31:33.396Z,11.10
2023-10-09T04:32:36.153Z,11.10
2023-10-09T04:33:44.236Z,11.10
2023-10-09T04:34:50.143Z,11.00
2023-10-09T04:36:12.574Z,11.00
2023-10-09T04:37:15.382Z,11.00
2023-10-09T04:38:17.973Z,11.00
2023-10-09T04:39:32.711Z,11.00
2023-10-09T04:40:47.634Z,11.00
2023-10-09T04:41:50.059Z,10.90
2023-10-09T04:43:07.034Z,11.00
2023-10-09T04:44:19.088Z,11.00
2023-10-09T04:45:41.526Z,11.00
2023-10-09T04:47:06.778Z,11.00
2023-10-09T04:48:10.473Z,11.00
2023-10-09T04:49:28.900Z,11.00
2023-10-09T04:50:31.234Z,11.00
2023-10-09T04:51:37.631Z,11.00
2023-10-09T04:52:40.102Z,11.10
2023-10-09T04:53:49.151Z,11.10
2023-10-09T04:55:23.922Z,11.10
2023-10-09T04:56:26.299Z,11.00
2023-10-09T04:57:29.005Z,11.00
2023-10-09T04:58:34.278Z,11.00
2023-10-09T04:59:47.601Z,11.00
2023-10-09T05:01:03.935Z,10.90
2023-10-09T05:02:08.070Z,10.90
2023-10-09T05:03:26.038Z,10.90
2023-10-09T05:04:40.185Z,10.90
2023-10-09T05:05:42.852Z,10.90
2023-10-09T05:06:56.528Z,10.80
2023-10-09T05:07:58.911Z,10.80
2023-10-09T05:09:09.502Z,10.80
2023-10-09T05:10:18.873Z,10.80
2023-10-09T05:11:35.975Z,10.80
2023-10-09T05:12:47.497Z,10.90
2023-10-09T05:13:59.183Z,10.80
2023-10-09T05:15:10.049Z,10.90
2023-10-09T05:16:19.991Z,10.90
2023-10-09T05:17:26.951Z,10.90
2023-10-09T05:18:37.653Z,10.90
2023-10-09T05:19:43.366Z,10.90
2023-10-09T05:21:07.227Z,10.90
2023-10-09T05:22:30.773Z,10.90
2023-10-09T05:23:45.587Z,10.90
2023-10-09T05:24:48.647Z,10.90
2023-10-09T05:26:00.083Z,10.90
2023-10-09T05:27:25.716Z,10.90
2023-10-09T05:28:49.870Z,10.90
2023-10-09T05:30:14.088Z,10.90
2023-10-09T05:31:37.128Z,10.90
2023-10-09T05:32:49.683Z,10.90
2023-10-09T05:33:54.506Z,11.00
2023-10-09T05:34:59.847Z,10.90
2023-10-09T05:36:33.227Z,11.00
2023-10-09T05:37:36.493Z,10.90
2023-10-09T05:38:47.436Z,10.90
2023-10-09T05:40:02.931Z,10.90
2023-10-09T05:41:28.349Z,10.90
2023-10-09T05:42:45.198Z,10.90
2023-10-09T05:44:06.471Z,10.90
2023-10-09T05:45:18.253Z,10.90
2023-10-09T05:46:36.588Z,10.90
2023-10-09T05:47:49.111Z,10.90
2023-10-09T05:48:55.939Z,10.90
2023-10-09T05:50:24.208Z,10.90
2023-10-09T05:51:45.659Z,10.80
2023-10-09T05:52:53.995Z,10.80
2023-10-09T05:54:13.528Z,10.80
2023-10-09T05:55:34.612Z,10.80
2023-10-09T05:56:55.676Z,10.80
2023-10-09T05:57:58.298Z,10.80
2023-10-09T05:59:12.994Z,10.80
2023-10-09T06:00:34.737Z,10.80
2023-10-09T06:01:55.942Z,10.80
2023-10-09T06:03:17.158Z,10.80
2023-10-09T06:04:21.153Z,10.70
2023-10-09T06:05:41.977Z,10.80
2023-10-09T06:06:47.720Z,10.80
2023-10-09T06:08:08.107Z,10.80
2023-10-09T06:09:24.834Z,10.80
2023-10-09T06:10:40.680Z,10.80
2023-10-09T06:11:50.996Z,10.80
2023-10-09T06:13:04.839Z,10.80
2023-10-09T06:14:10.387Z,10.80
2023-10-09T06:15:41.871Z,10.80
2023-10-09T06:16:44.275Z,10.80
2023-10-09T06:17:53.365Z,10.80
2023-10-09T06:19:09.357Z,10.80
2023-10-09T06:20:38.054Z,10.80
2023-10-09T06:21:43.749Z,10.80
2023-10-09T06:22:58.252Z,10.80
2023-10-09T06:24:16.648Z,10.80
2023-10-09T06:25:19.478Z,10.80
2023-10-09T06:26:25.473Z,10.80
2023-10-09T06:27:31.089Z,10.80
2023-10-09T06:28:36.345Z,10.90
2023-10-09T06:29:51.879Z,10.90
2023-10-09T06:30:54.315Z,10.90
2023-10-09T06:32:00.247Z,10.90
2023-10-09T06:33:21.123Z,10.90
2023-10-09T06:34:33.586Z,10.90
2023-10-09T06:35:37.395Z,10.80
2023-10-09T06:36:54.079Z,10.80
2023-10-09T06:38:02.918Z,10.90
2023-10-09T06:39:24.002Z,10.80
2023-10-09T06:40:38.266Z,10.90
2023-10-09T06:41:46.475Z,10.90
2023-10-09T06:42:52.591Z,10.80
2023-10-09T06:43:56.584Z,10.90
2023-10-09T06:45:15.782Z,10.90
2023-10-09T06:46:27.500Z,10.90
2023-10-09T06:47:42.196Z,10.80
2023-10-09T06:48:57.267Z,10.80
2023-10-09T06:50:21.161Z,10.90
2023-10-09T06:51:27.260Z,10.90
2023-10-09T06:52:49.975Z,10.90
2023-10-09T06:53:57.025Z,10.90
2023-10-09T06:55:10.276Z,10.90
2023-10-09T06:56:24.235Z,10.90
2023-10-09T06:57:45.100Z,10.90
2023-10-09T06:58:49.142Z,10.90
2023-10-09T07:00:26.756Z,10.90
2023-10-09T07:01:29.300Z,10.90
2023-10-09T07:02:47.205Z,10.90
2023-10-09T07:04:01.481Z,10.90
2023-10-09T07:05:14.098Z,10.90
2023-10-09T07:06:26.307Z,10.90
2023-10-09T07:07:29.086Z,10.90
2023-10-09T07:08:38.282Z,10.90
2023-10-09T07:09:43.606Z,11.00
2023-10-09T07:11:03.493Z,11.00
2023-10-09T07:12:11.099Z,11.00
2023-10-09T07:13:38.279Z,11.00
2023-10-09T07:14:40.756Z,11.10
2023-10-09T07:16:04.196Z,11.10
2023-10-09T07:17:23.186Z,11.10
2023-10-09T07:18:26.660Z,11.10
2023-10-09T07:19:42.902Z,11.10
2023-10-09T07:21:00.146Z,11.20
2023-10-09T07:22:06.046Z,11.20
2023-10-09T07:23:18.872Z,11.20
2023-10-09T07:24:26.182Z,11.30
2023-10-09T07:25:56.377Z,11.30
2023-10-09T07:27:07.263Z,11.40
2023-10-09T07:28:30.123Z,11.40
2023-10-09T07:29:48.697Z,11.50
2023-10-09T07:30:58.714Z,11.50
2023-10-09T07:32:13.656Z,11.60
2023-10-09T07:33:17.225Z,11.60
2023-10-09T07:34:32.105Z,11.70
2023-10-09T07:35:43.842Z,11.70
2023-10-09T07:36:49.470Z,11.80
2023-10-09T07:37:52.103Z,11.80
2023-10-09T07:38:56.461Z,11.80
2023-10-09T07:39:58.985Z,11.80
2023-10-09T07:41:07.206Z,11.90
2023-10-09T07:42:28.316Z,11.90
2023-10-09T07:43:53.509Z,12.00
2023-10-09T07:44:58.980Z,12.10
2023-10-09T07:46:06.614Z,12.10
2023-10-09T07:47:18.402Z,12.10
2023-10-09T07:48:26.994Z,12.20
2023-10-09T07:49:30.569Z,12.20
2023-10-09T07:50:49.936Z,12.20
2023-10-09T07:51:53.849Z,12.20
2023-10-09T07:53:16.052Z,12.30
2023-10-09T07:54:33.313Z,12.30
2023-10-09T07:55:40.749Z,12.40
2023-10-09T07:56:47.673Z,12.40
2023-10-09T07:57:53.443Z,12.40
2023-10-09T07:59:01.272Z,12.40
2023-10-09T08:00:13.248Z,12.40
2023-10-09T08:01:36.426Z,12.40
2023-10-09T08:02:40.282Z,12.40
2023-10-09T08:03:51.468Z,12.40
2023-10-09T08:04:54.591Z,12.40
2023-10-09T08:06:08.279Z,12.40
2023-10-09T08:08:06.631Z,12.40
2023-10-09T08:09:03.166Z,12.40
2023-10-09T08:10:15.513Z,12.30
2023-10-09T08:11:40.792Z,12.30
2023-10-09T08:12:50.346Z,12.30
2023-10-09T08:14:01.888Z,12.30
2023-10-09T08:15:21.031Z,12.30
2023-10-09T08:16:37.502Z,12.30
2023-10-09T08:17:40.198Z,12.30
2023-10-09T08:18:46.719Z,12.30
2023-10-09T08:20:12.649Z,12.30
2023-10-09T08:21:15.268Z,12.30
2023-10-09T08:22:26.329Z,12.30
2023-10-09T08:23:34.881Z,12.30
2023-10-09T08:24:42.828Z,12.30
2023-10-09T08:25:58.482Z,12.20
2023-10-09T08:27:29.506Z,12.20
2023-10-09T08:28:41.056Z,12.20
2023-10-09T08:29:48.815Z,12.10
2023-10-09T08:31:04.072Z,12.10
2023-10-09T08:34:18.468Z,12.10
2023-10-09T08:36:06.356Z,12.00
2023-10-09T08:37:13.987Z,12.00
2023-10-09T08:38:24.650Z,12.00
2023-10-09T08:39:27.880Z,12.00
2023-10-09T08:40:44.164Z,12.00
2023-10-09T08:41:47.234Z,12.00
2023-10-09T08:42:55.274Z,12.00
2023-10-09T08:43:58.821Z,12.10
2023-10-09T08:45:06.289Z,12.10
2023-10-09T08:46:08.794Z,12.10
2023-10-09T08:47:12.276Z,12.10
2023-10-09T08:48:19.080Z,12.10
2023-10-09T08:49:22.876Z,12.20
2023-10-09T08:50:29.889Z,12.20
2023-10-09T08:51:35.271Z,12.20
2023-10-09T08:52:38.933Z,12.20
2023-10-09T08:53:46.945Z,12.20
2023-10-09T08:54:49.416Z,12.20
2023-10-09T08:55:52.463Z,12.30
2023-10-09T08:56:57.427Z,12.30
2023-10-09T08:58:00.224Z,12.30
2023-10-09T08:59:03.613Z,12.30
2023-10-09T09:00:10.969Z,12.30
2023-10-09T09:01:18.822Z,12.30
2023-10-09T09:02:22.856Z,12.30
2023-10-09T09:03:25.711Z,12.30
2023-10-09T09:04:42.308Z,12.30
2023-10-09T09:05:48.641Z,12.30
2023-10-09T09:06:51.018Z,12.30
2023-10-09T09:07:57.419Z,12.40
2023-10-09T09:09:15.229Z,12.40
2023-10-09T09:10:25.045Z,12.40
2023-10-09T09:11:31.588Z,12.50
2023-10-09T09:12:39.101Z,12.40
2023-10-09T09:13:51.270Z,12.50
2023-10-09T09:14:53.989Z,12.50
2023-10-09T09:15:58.769Z,12.60
2023-10-09T09:17:04.940Z,12.60
2023-10-09T09:18:12.779Z,12.70
2023-10-09T09:19:19.425Z,12.70
2023-10-09T09:20:36.012Z,12.80
2023-10-09T09:21:42.035Z,12.80
2023-10-09T09:22:57.902Z,12.90
2023-10-09T09:24:16.376Z,12.90
2023-10-09T09:25:18.840Z,12.90
2023-10-09T09:26:38.606Z,12.90
2023-10-09T09:27:57.428Z,13.00
2023-10-09T09:29:01.349Z,13.00
2023-10-09T09:30:09.039Z,13.00
2023-10-09T09:31:15.200Z,13.00
2023-10-09T09:32:21.378Z,13.00
2023-10-09T09:33:41.931Z,13.00
2023-10-09T09:35:02.503Z,13.10
2023-10-09T09:36:06.314Z,13.10
2023-10-09T09:37:15.048Z,13.10
2023-10-09T09:38:18.960Z,13.10
2023-10-09T09:39:35.516Z,13.10
2023-10-09T09:40:44.379Z,13.10
2023-10-09T09:41:48.249Z,13.10
2023-10-09T09:42:51.825Z,13.10
2023-10-09T09:44:02.187Z,13.10
2023-10-09T09:45:05.605Z,13.20
2023-10-09T09:46:12.971Z,13.10
2023-10-09T09:47:25.387Z,13.10
2023-10-09T09:48:28.309Z,13.10
2023-10-09T09:49:33.022Z,13.10
2023-10-09T09:50:39.999Z,13.10
2023-10-09T09:51:44.228Z,13.10
2023-10-09T09:52:48.231Z,13.10
2023-10-09T09:53:52.464Z,13.10
2023-10-09T09:54:55.117Z,13.10
2023-10-09T09:56:00.357Z,13.10
2023-10-09T09:57:12.087Z,13.10
2023-10-09T09:58:21.567Z,13.00
2023-10-09T09:59:30.243Z,13.00
2023-10-09T10:00:42.001Z,13.10
2023-10-09T10:01:46.234Z,13.10
2023-10-09T10:02:49.135Z,13.00
2023-10-09T10:04:00.999Z,13.10
2023-10-09T10:05:12.645Z,13.10
2023-10-09T10:06:15.695Z,13.10
2023-10-09T10:07:22.483Z,13.10
2023-10-09T10:08:43.817Z,13.10
2023-10-09T10:09:46.895Z,13.00
2023-10-09T10:10:57.012Z,13.00
2023-10-09T10:12:05.565Z,13.00
2023-10-09T10:13:15.872Z,13.00
2023-10-09T10:14:44.035Z,13.00
2023-10-09T10:16:22.396Z,13.00
2023-10-09T10:17:25.132Z,13.00
2023-10-09T10:18:33.486Z,13.00
2023-10-09T10:20:01.820Z,13.00
2023-10-09T10:21:15.535Z,13.10
2023-10-09T10:22:29.134Z,13.10
2023-10-09T10:23:33.641Z,13.10
2023-10-09T10:24:52.741Z,13.10
2023-10-09T10:26:02.156Z,13.20
2023-10-09T10:27:25.391Z,13.20
2023-10-09T10:28:47.084Z,13.20
2023-10-09T10:30:12.390Z,13.20
2023-10-09T10:31:15.599Z,13.20
2023-10-09T10:32:19.521Z,13.20
2023-10-09T10:33:23.872Z,13.10
2023-10-09T10:34:26.755Z,13.20
2023-10-09T10:35:46.444Z,13.20
2023-10-09T10:36:53.564Z,13.20
2023-10-09T10:38:12.018Z,13.20
2023-10-09T10:39:17.375Z,13.30
2023-10-09T10:40:44.453Z,13.40
2023-10-09T10:42:06.075Z,13.40
2023-10-09T10:43:33.689Z,13.50
2023-10-09T10:44:39.827Z,13.60
2023-10-09T10:45:45.386Z,13.60
2023-10-09T10:46:53.625Z,13.60
2023-10-09T10:47:59.720Z,13.70
2023-10-09T10:49:22.585Z,13.60
2023-10-09T10:50:30.984Z,13.70
2023-10-09T10:51:38.736Z,13.60
2023-10-09T10:52:44.241Z,13.60
2023-10-09T10:53:56.003Z,13.70
2023-10-09T10:55:30.834Z,13.70
2023-10-09T10:56:39.131Z,13.70
2023-10-09T10:58:00.018Z,13.80
2023-10-09T10:59:05.714Z,13.80
2023-10-09T11:00:33.887Z,13.80
2023-10-09T11:03:14.950Z,13.80
2023-10-09T11:04:33.773Z,13.90
2023-10-09T11:05:41.001Z,13.90
2023-10-09T11:06:44.469Z,13.80
2023-10-09T11:07:47.025Z,13.70
2023-10-09T11:08:56.168Z,13.70
2023-10-09T11:10:05.720Z,13.70
2023-10-09T11:11:17.964Z,13.60
2023-10-09T11:12:24.172Z,13.60
2023-10-09T11:13:32.176Z,13.50
2023-10-09T11:14:46.231Z,13.50
2023-10-09T11:15:57.380Z,13.50
2023-10-09T11:17:00.046Z,13.40
2023-10-09T11:18:08.865Z,13.40
2023-10-09T11:19:28.610Z,13.40
2023-10-09T11:20:33.767Z,13.50
2023-10-09T11:21:41.963Z,13.50
2023-10-09T11:23:04.726Z,13.50
2023-10-09T11:24:30.210Z,13.50
2023-10-09T11:25:34.952Z,13.50
2023-10-09T11:26:41.718Z,13.40
2023-10-09T11:27:52.192Z,13.40
2023-10-09T11:29:45.419Z,13.40
2023-10-09T11:30:47.841Z,13.40
2023-10-09T11:32:07.174Z,13.30
2023-10-09T11:33:15.682Z,13.30
2023-10-09T11:34:30.345Z,13.30
2023-10-09T11:35:35.968Z,13.30
2023-10-09T11:36:39.875Z,13.40
2023-10-09T11:37:44.941Z,13.40
2023-10-09T11:38:50.526Z,13.40
2023-10-09T11:39:58.974Z,13.40
2023-10-09T11:41:20.126Z,13.40
2023-10-09T11:42:39.687Z,13.50
2023-10-09T11:43:53.069Z,13.40
2023-10-09T11:44:56.766Z,13.40
2023-10-09T11:46:12.142Z,13.40
2023-10-09T11:47:21.130Z,13.30
2023-10-09T11:48:34.608Z,13.30
2023-10-09T11:49:47.902Z,13.20
2023-10-09T11:50:56.516Z,13.20
2023-10-09T11:52:09.655Z,13.10
2023-10-09T11:53:24.644Z,13.20
2023-10-09T11:54:34.434Z,13.10
2023-10-09T11:55:37.756Z,13.10
2023-10-09T11:56:40.403Z,13.10
2023-10-09T11:57:43.201Z,13.10
2023-10-09T11:58:51.382Z,13.20
2023-10-09T11:59:54.150Z,13.20
2023-10-09T12:01:00.738Z,13.20
2023-10-09T12:02:05.669Z,13.20
2023-10-09T12:03:08.117Z,13.30
2023-10-09T12:04:10.712Z,13.30
2023-10-09T12:05:18.437Z,13.40
2023-10-09T12:06:25.145Z,13.50
2023-10-09T12:07:28.898Z,13.50
2023-10-09T12:08:35.191Z,13.60
2023-10-09T12:09:41.049Z,13.70
2023-10-09T12:10:43.808Z,13.80
2023-10-09T12:12:03.182Z,13.90
2023-10-09T12:13:08.701Z,14.00
2023-10-09T12:14:11.346Z,14.10
2023-10-09T12:15:18.997Z,14.10
2023-10-09T12:16:23.325Z,14.10
2023-10-09T12:17:27.506Z,14.10
2023-10-09T12:18:30.275Z,14.10
2023-10-09T12:19:37.226Z,14.20
2023-10-09T12:20:40.313Z,14.20
2023-10-09T12:21:44.259Z,14.20
2023-10-09T12:22:46.693Z,14.20
2023-10-09T12:23:49.084Z,14.20
2023-10-09T12:24:51.551Z,14.30
2023-10-09T12:25:57.801Z,14.30
2023-10-09T12:27:01.020Z,14.30
2023-10-09T12:28:04.376Z,14.40
2023-10-09T12:29:12.684Z,14.40
2023-10-09T12:30:15.443Z,14.40
2023-10-09T12:31:21.483Z,14.40
2023-10-09T12:32:24.014Z,14.40
2023-10-09T12:33:29.386Z,14.30
2023-10-09T12:34:32.692Z,14.30
2023-10-09T12:35:39.728Z,14.30
2023-10-09T12:36:44.941Z,14.30
2023-10-09T12:37:48.161Z,14.30
2023-10-09T12:38:53.981Z,14.30
2023-10-09T12:39:58.045Z,14.30
2023-10-09T12:41:40.000Z,14.30
2023-10-09T12:42:42.422Z,14.40
2023-10-09T12:43:44.879Z,14.30
2023-10-09T12:44:47.284Z,14.40
2023-10-09T12:45:49.771Z,14.40
2023-10-09T12:46:55.341Z,14.40
2023-10-09T12:48:00.574Z,14.40
2023-10-09T12:49:03.235Z,14.30
2023-10-09T12:50:11.502Z,14.30
2023-10-09T12:51:17.985Z,14.30
2023-10-09T12:52:21.022Z,14.20
2023-10-09T12:53:23.617Z,14.10
2023-10-09T12:54:29.434Z,14.10
2023-10-09T12:55:35.832Z,14.10
2023-10-09T12:56:39.171Z,14.10
2023-10-09T12:57:41.843Z,14.20
2023-10-09T12:58:54.053Z,14.20
2023-10-09T12:59:57.089Z,14.20
2023-10-09T13:01:10.634Z,14.30
2023-10-09T13:02:15.201Z,14.30
2023-10-09T13:03:18.756Z,14.40
2023-10-09T13:04:23.591Z,14.40
2023-10-09T13:05:28.765Z,14.40
2023-10-09T13:06:31.496Z,14.50
2023-10-09T13:07:34.564Z,14.50
2023-10-09T13:08:37.386Z,14.60
2023-10-09T13:09:53.180Z,14.60
2023-10-09T13:11:01.763Z,14.70
2023-10-09T13:12:04.556Z,14.70
2023-10-09T13:13:07.590Z,14.70
2023-10-09T13:14:18.292Z,14.70
2023-10-09T13:15:22.136Z,14.70
2023-10-09T13:16:24.827Z,14.60
2023-10-09T13:17:28.440Z,14.60
2023-10-09T13:18:31.061Z,14.60
2023-10-09T13:19:33.439Z,14.60
2023-10-09T13:20:37.321Z,14.60
2023-10-09T13:21:43.502Z,14.60
2023-10-09T13:22:49.161Z,14.60
2023-10-09T13:23:53.262Z,14.50
2023-10-09T13:25:04.821Z,14.50
2023-10-09T13:26:31.333Z,14.50
2023-10-09T13:27:36.160Z,14.50
2023-10-09T13:28:38.891Z,14.50
2023-10-09T13:29:41.665Z,14.50
2023-10-09T13:30:50.456Z,14.50
2023-10-09T13:31:59.200Z,14.50
2023-10-09T13:33:01.913Z,14.40
2023-10-09T13:34:07.797Z,14.40
2023-10-09T13:35:10.580Z,14.30
2023-10-09T13:36:32.312Z,14.20
2023-10-09T13:37:38.003Z,14.20
2023-10-09T13:38:44.417Z,14.10
2023-10-09T13:39:57.485Z,14.10
2023-10-09T13:41:05.457Z,14.00
2023-10-09T13:42:11.648Z,14.00
2023-10-09T13:43:18.156Z,14.00
2023-10-09T13:44:20.872Z,14.00
2023-10-09T13:45:28.198Z,14.00
2023-10-09T13:46:31.090Z,13.90
2023-10-09T13:47:34.532Z,14.00
2023-10-09T13:48:42.248Z,14.00
2023-10-09T13:49:45.438Z,14.00
2023-10-09T13:50:48.427Z,14.00
2023-10-09T13:51:51.520Z,14.00
2023-10-09T13:52:55.524Z,13.90
2023-10-09T13:53:58.014Z,13.90
2023-10-09T13:55:16.266Z,13.90
2023-10-09T13:56:20.089Z,13.90
2023-10-09T13:57:32.097Z,13.90
2023-10-09T13:58:35.742Z,13.80
2023-10-09T13:59:43.585Z,13.80
2023-10-09T14:00:47.599Z,13.80
2023-10-09T14:01:51.094Z,13.80
2023-10-09T14:02:53.590Z,13.80
2023-10-09T14:04:00.388Z,13.80
2023-10-09T14:05:02.983Z,13.80
2023-10-09T14:06:13.761Z,13.80
2023-10-09T14:07:21.696Z,13.80
2023-10-09T14:08:24.849Z,13.80
2023-10-09T14:09:46.352Z,13.70
2023-10-09T14:10:49.771Z,13.70
2023-10-09T14:11:53.557Z,13.70
2023-10-09T14:12:57.909Z,13.70
2023-10-09T14:14:11.443Z,13.60
2023-10-09T14:15:18.710Z,13.60
2023-10-09T14:16:33.918Z,13.60
2023-10-09T14:17:36.380Z,13.60
2023-10-09T14:18:38.711Z,13.50
2023-10-09T14:19:43.062Z,13.50
2023-10-09T14:20:45.428Z,13.40
2023-10-09T14:21:50.860Z,13.40
2023-10-09T14:22:54.150Z,13.40
2023-10-09T14:23:58.291Z,13.40
2023-10-09T14:25:00.722Z,13.40
2023-10-09T14:26:03.320Z,13.40
2023-10-09T14:27:07.668Z,13.40
2023-10-09T14:28:10.743Z,13.40
2023-10-09T14:29:18.164Z,13.40
2023-10-09T14:30:32.032Z,13.40
2023-10-09T14:31:40.128Z,13.40
2023-10-09T14:32:52.557Z,13.40
2023-10-09T14:33:58.164Z,13.50
2023-10-09T14:35:02.342Z,13.50
2023-10-09T14:36:07.318Z,13.50
2023-10-09T14:37:13.224Z,13.50
2023-10-09T14:38:16.570Z,13.50
2023-10-09T14:39:20.642Z,13.50
2023-10-09T14:40:30.852Z,13.50
2023-10-09T14:41:34.427Z,13.50
2023-10-09T14:42:37.590Z,13.50
2023-10-09T14:43:40.878Z,13.50
2023-10-09T14:44:46.441Z,13.50
2023-10-09T14:45:50.119Z,13.50
2023-10-09T14:46:52.681Z,13.50
2023-10-09T14:47:55.464Z,13.60
2023-10-09T14:48:58.047Z,13.60
2023-10-09T14:50:02.957Z,13.50
2023-10-09T14:51:08.452Z,13.50
2023-10-09T14:52:11.827Z,13.60
2023-10-09T14:53:16.516Z,13.60
2023-10-09T14:54:19.470Z,13.70